createdAt,value
2019-04-30T00:01:25.268Z,10.68
2019-04-30T00:04:02.406Z,10.60
2019-04-30T00:06:39.330Z,10.59
2019-04-30T00:09:15.224Z,10.53
2019-04-30T00:11:50.744Z,10.50
2019-04-30T00:14:21.429Z,10.45
2019-04-30T00:16:55.089Z,10.43
2019-04-30T00:19:27.697Z,10.39
2019-04-30T00:22:00.689Z,10.33
2019-04-30T00:24:35.356Z,10.28
2019-04-30T00:27:07.901Z,10.31
2019-04-30T00:29:40.464Z,10.25
2019-04-30T00:32:13.300Z,10.22
2019-04-30T00:34:46.009Z,10.18
2019-04-30T00:37:19.058Z,10.14
2019-04-30T00:39:53.088Z,10.11
2019-04-30T00:42:28.677Z,10.07
2019-04-30T00:45:06.659Z,10.04
2019-04-30T00:47:35.196Z,10.03
2019-04-30T00:50:09.260Z,9.97
2019-04-30T00:52:41.775Z,9.94
2019-04-30T00:55:15.041Z,9.87
2019-04-30T00:57:47.920Z,9.86
2019-04-30T01:00:25.936Z,9.82
2019-04-30T01:03:00.856Z,9.77
2019-04-30T01:05:32.115Z,9.77
2019-04-30T01:08:07.133Z,9.74
2019-04-30T01:10:39.725Z,9.70
2019-04-30T01:13:12.345Z,9.69
2019-04-30T01:15:49.023Z,9.67
2019-04-30T01:18:19.403Z,9.67
2019-04-30T01:20:52.090Z,9.65
2019-04-30T01:23:24.915Z,9.62
2019-04-30T01:25:58.571Z,9.59
2019-04-30T01:28:31.726Z,9.60
2019-04-30T01:31:04.110Z,9.56
2019-04-30T01:33:38.892Z,9.55
2019-04-30T01:36:13.317Z,9.52
2019-04-30T01:38:49.041Z,9.47
2019-04-30T01:41:27.058Z,9.45
2019-04-30T01:43:53.987Z,9.43
2019-04-30T01:46:26.540Z,9.41
2019-04-30T01:48:59.485Z,9.35
2019-04-30T01:51:32.210Z,9.36
2019-04-30T01:54:04.714Z,9.32
2019-04-30T01:56:44.936Z,9.28
2019-04-30T01:59:19.560Z,9.27
2019-04-30T02:01:52.850Z,9.24
2019-04-30T02:04:25.595Z,9.19
2019-04-30T02:06:59.204Z,9.14
2019-04-30T02:09:32.020Z,9.14
2019-04-30T02:12:04.790Z,9.08
2019-04-30T02:14:37.325Z,9.04
2019-04-30T02:17:10.385Z,9.01
2019-04-30T02:19:54.167Z,8.97
2019-04-30T02:22:18.841Z,8.93
2019-04-30T02:24:51.880Z,8.87
2019-04-30T02:27:24.570Z,8.83
2019-04-30T02:29:57.090Z,8.80
2019-04-30T02:32:30.687Z,8.76
2019-04-30T02:35:04.854Z,8.71
2019-04-30T02:37:40.413Z,8.66
2019-04-30T02:40:13.325Z,8.62
2019-04-30T02:42:46.086Z,8.55
2019-04-30T02:45:19.887Z,8.53
2019-04-30T02:47:52.751Z,8.48
2019-04-30T02:50:29.232Z,8.42
2019-04-30T02:53:03.821Z,8.36
2019-04-30T02:55:46.274Z,8.33
2019-04-30T02:58:20.983Z,8.28
2019-04-30T03:00:53.347Z,8.22
2019-04-30T03:03:26.335Z,8.15
2019-04-30T03:05:59.623Z,8.11
2019-04-30T03:08:32.456Z,8.07
2019-04-30T03:11:05.621Z,8.01
2019-04-30T03:13:42.511Z,7.96
2019-04-30T03:16:14.348Z,7.93
2019-04-30T03:18:50.005Z,7.89
2019-04-30T03:21:40.820Z,9.32
2019-04-30T03:24:14.410Z,11.69
2019-04-30T03:26:49.683Z,13.51
2019-04-30T03:29:23.868Z,13.82
2019-04-30T03:31:56.002Z,13.27
2019-04-30T03:34:32.805Z,12.80
2019-04-30T03:37:02.868Z,12.39
2019-04-30T03:39:35.602Z,12.05
2019-04-30T03:42:09.971Z,11.72
2019-04-30T03:44:42.886Z,11.41
2019-04-30T03:47:15.785Z,11.12
2019-04-30T03:49:49.884Z,10.84
2019-04-30T03:52:23.865Z,10.59
2019-04-30T03:55:02.456Z,10.33
2019-04-30T03:57:30.857Z,10.12
2019-04-30T04:00:03.790Z,9.93
2019-04-30T04:02:40.454Z,9.79
2019-04-30T04:05:13.440Z,9.69
2019-04-30T04:07:53.150Z,9.62
2019-04-30T04:10:29.745Z,9.66
2019-04-30T04:13:02.695Z,9.72
2019-04-30T04:15:36.761Z,9.80
2019-04-30T04:18:10.754Z,9.91
2019-04-30T04:20:43.569Z,10.05
2019-04-30T04:23:16.337Z,10.14
2019-04-30T04:25:49.855Z,10.27
2019-04-30T04:28:22.657Z,10.33
2019-04-30T04:30:55.305Z,10.49
2019-04-30T04:33:29.642Z,10.55
2019-04-30T04:36:02.561Z,10.52
2019-04-30T04:38:35.250Z,10.42
2019-04-30T04:41:10.363Z,10.38
2019-04-30T04:43:42.161Z,10.31
2019-04-30T04:46:14.716Z,10.25
2019-04-30T04:48:49.427Z,10.22
2019-04-30T04:51:34.370Z,10.20
2019-04-30T04:53:56.217Z,10.18
2019-04-30T04:56:30.477Z,10.28
2019-04-30T04:59:03.145Z,10.43
2019-04-30T05:01:35.941Z,10.56
2019-04-30T05:04:09.262Z,10.63
2019-04-30T05:06:43.082Z,10.86
2019-04-30T05:09:16.030Z,11.12
2019-04-30T05:11:48.850Z,11.41
2019-04-30T05:14:21.647Z,11.82
2019-04-30T05:16:55.400Z,12.24
2019-04-30T05:19:28.631Z,12.67
2019-04-30T05:22:01.265Z,13.02
2019-04-30T05:24:34.140Z,13.37
2019-04-30T05:27:06.671Z,13.63
2019-04-30T05:29:39.420Z,13.89
2019-04-30T05:32:12.180Z,14.01
2019-04-30T05:34:44.840Z,14.11
2019-04-30T05:37:18.708Z,14.11
2019-04-30T05:39:51.525Z,14.17
2019-04-30T05:42:24.161Z,14.18
2019-04-30T05:44:56.800Z,14.20
2019-04-30T05:47:29.592Z,14.24
2019-04-30T05:50:02.470Z,14.20
2019-04-30T05:52:35.325Z,14.11
2019-04-30T05:55:08.538Z,14.08
2019-04-30T05:57:53.100Z,14.01
2019-04-30T06:00:16.325Z,13.99
2019-04-30T06:02:49.720Z,13.99
2019-04-30T06:05:22.730Z,13.93
2019-04-30T06:07:55.566Z,13.89
2019-04-30T06:10:36.975Z,13.86
2019-04-30T06:13:14.245Z,13.80
2019-04-30T06:15:49.061Z,13.75
2019-04-30T06:18:22.061Z,13.73
2019-04-30T06:20:54.765Z,13.68
2019-04-30T06:23:29.303Z,13.65
2019-04-30T06:26:09.911Z,13.65
2019-04-30T06:28:39.036Z,13.63
2019-04-30T06:31:11.536Z,13.62
2019-04-30T06:33:45.105Z,13.62
2019-04-30T06:36:19.092Z,13.62
2019-04-30T06:38:51.845Z,13.69
2019-04-30T06:41:24.710Z,13.73
2019-04-30T06:43:58.762Z,13.78
2019-04-30T06:46:31.870Z,13.82
2019-04-30T06:49:05.135Z,13.86
2019-04-30T06:51:38.917Z,13.89
2019-04-30T06:54:11.600Z,13.93
2019-04-30T06:56:44.190Z,13.97
2019-04-30T06:59:16.784Z,14.00
2019-04-30T07:01:49.665Z,14.03
2019-04-30T07:04:22.641Z,14.08
2019-04-30T07:06:55.965Z,14.17
2019-04-30T07:09:31.618Z,14.27
2019-04-30T07:12:27.062Z,14.37
2019-04-30T07:14:52.850Z,14.48
2019-04-30T07:17:25.535Z,14.58
2019-04-30T07:19:59.738Z,14.69
2019-04-30T07:22:39.687Z,14.76
2019-04-30T07:25:09.587Z,14.83
2019-04-30T07:27:42.361Z,15.00
2019-04-30T07:30:15.061Z,15.13
2019-04-30T07:32:48.840Z,15.24
2019-04-30T07:35:21.220Z,15.42
2019-04-30T07:37:54.566Z,15.64
2019-04-30T07:40:29.229Z,15.80
2019-04-30T07:43:01.800Z,15.94
2019-04-30T07:45:35.525Z,16.07
2019-04-30T07:48:09.337Z,16.20
2019-04-30T07:50:42.689Z,16.27
2019-04-30T07:53:15.185Z,16.35
2019-04-30T07:55:49.445Z,16.47
2019-04-30T07:58:23.092Z,16.54
2019-04-30T08:00:59.228Z,16.61
2019-04-30T08:03:35.854Z,16.64
2019-04-30T08:06:10.076Z,16.68
2019-04-30T08:08:43.535Z,16.71
2019-04-30T08:11:25.340Z,16.73
2019-04-30T08:13:50.826Z,16.76
2019-04-30T08:16:23.755Z,16.85
2019-04-30T08:18:59.177Z,16.95
2019-04-30T08:21:31.824Z,17.03
2019-04-30T08:24:04.445Z,17.09
2019-04-30T08:26:39.766Z,17.10
2019-04-30T08:29:15.224Z,17.11
2019-04-30T08:31:49.226Z,17.16
2019-04-30T08:34:21.765Z,17.20
2019-04-30T08:36:54.883Z,17.27
2019-04-30T08:39:29.438Z,17.34
2019-04-30T08:42:02.015Z,17.41
2019-04-30T08:44:35.805Z,17.47
2019-04-30T08:47:08.732Z,17.55
2019-04-30T08:49:41.556Z,17.58
2019-04-30T08:52:14.445Z,17.64
2019-04-30T08:54:46.765Z,17.71
2019-04-30T08:57:19.489Z,17.78
2019-04-30T08:59:53.146Z,17.84
2019-04-30T09:02:26.236Z,17.90
2019-04-30T09:05:00.477Z,17.99
2019-04-30T09:07:33.155Z,18.05
2019-04-30T09:10:06.606Z,18.12
2019-04-30T09:12:39.970Z,18.14
2019-04-30T09:15:12.676Z,18.20
2019-04-30T09:17:58.886Z,18.23
2019-04-30T09:20:21.035Z,18.33
2019-04-30T09:22:53.554Z,18.40
2019-04-30T09:25:25.949Z,18.47
2019-04-30T09:27:58.983Z,18.55
2019-04-30T09:30:31.405Z,18.60
2019-04-30T09:33:03.870Z,18.70
2019-04-30T09:35:37.340Z,18.75
2019-04-30T09:38:09.937Z,18.79
2019-04-30T09:40:42.275Z,18.88
2019-04-30T09:43:14.795Z,18.90
2019-04-30T09:45:49.568Z,18.96
2019-04-30T09:48:21.755Z,18.99
2019-04-30T09:50:54.674Z,19.06
2019-04-30T09:53:27.015Z,19.10
2019-04-30T09:55:59.748Z,19.13
2019-04-30T09:58:32.275Z,19.11
2019-04-30T10:01:05.955Z,19.17
2019-04-30T10:03:39.205Z,19.22
2019-04-30T10:06:12.515Z,19.23
2019-04-30T10:08:48.504Z,19.25
2019-04-30T10:11:33.855Z,19.29
2019-04-30T10:14:06.335Z,19.36
2019-04-30T10:16:40.218Z,19.43
2019-04-30T10:19:14.906Z,19.47
2019-04-30T10:21:51.279Z,19.53
2019-04-30T10:24:23.578Z,19.62
2019-04-30T10:26:55.895Z,19.69
2019-04-30T10:29:29.805Z,19.74
2019-04-30T10:32:02.336Z,19.82
2019-04-30T10:34:34.794Z,19.88
2019-04-30T10:37:08.993Z,19.93
2019-04-30T10:39:41.778Z,20.01
2019-04-30T10:42:14.164Z,20.02
2019-04-30T10:44:46.715Z,20.08
2019-04-30T10:47:19.539Z,20.15
2019-04-30T10:49:51.995Z,20.22
2019-04-30T10:52:24.555Z,20.24
2019-04-30T10:54:56.854Z,20.24
2019-04-30T10:57:29.163Z,20.30
2019-04-30T11:00:01.735Z,20.39
2019-04-30T11:02:35.605Z,20.41
2019-04-30T11:05:09.746Z,20.47
2019-04-30T11:07:42.002Z,20.51
2019-04-30T11:10:15.335Z,20.55
2019-04-30T11:12:47.635Z,20.65
2019-04-30T11:15:21.145Z,20.68
2019-04-30T11:17:53.708Z,20.74
2019-04-30T11:20:26.385Z,20.79
2019-04-30T11:22:58.882Z,20.85
2019-04-30T11:25:32.067Z,20.89
2019-04-30T11:28:06.352Z,20.98
2019-04-30T11:30:39.668Z,21.03
2019-04-30T11:33:12.373Z,21.06
2019-04-30T11:35:44.856Z,21.13
2019-04-30T11:38:20.369Z,21.15
2019-04-30T11:40:51.305Z,21.17
2019-04-30T11:43:23.445Z,21.23
2019-04-30T11:46:00.376Z,21.25
2019-04-30T11:48:32.735Z,21.26
2019-04-30T11:51:05.215Z,21.26
2019-04-30T11:53:38.988Z,21.30
2019-04-30T11:56:11.587Z,21.37
2019-04-30T11:58:43.858Z,21.43
2019-04-30T12:01:19.474Z,21.46
2019-04-30T12:03:52.215Z,21.47
2019-04-30T12:06:24.676Z,21.52
2019-04-30T12:09:00.218Z,21.50
2019-04-30T12:11:35.795Z,21.53
2019-04-30T12:14:08.415Z,21.54
2019-04-30T12:16:41.935Z,21.57
2019-04-30T12:19:15.995Z,21.54
2019-04-30T12:21:49.295Z,21.63
2019-04-30T12:24:21.775Z,21.75
2019-04-30T12:26:54.388Z,21.82
2019-04-30T12:29:28.951Z,21.94
2019-04-30T12:32:00.882Z,22.04
2019-04-30T12:34:33.742Z,22.07
2019-04-30T12:37:06.440Z,22.05
2019-04-30T12:39:39.487Z,22.08
2019-04-30T12:42:12.144Z,22.19
2019-04-30T12:44:44.661Z,22.28
2019-04-30T12:47:19.413Z,22.30
2019-04-30T12:49:52.499Z,22.39
2019-04-30T12:52:30.500Z,22.37
2019-04-30T12:55:14.949Z,22.35
2019-04-30T12:57:42.730Z,22.36
2019-04-30T13:00:16.901Z,22.29
2019-04-30T13:02:49.180Z,22.30
2019-04-30T13:05:21.661Z,22.26
2019-04-30T13:07:54.499Z,22.18
2019-04-30T13:10:28.052Z,22.05
2019-04-30T13:13:01.211Z,21.99
2019-04-30T13:15:34.040Z,22.05
2019-04-30T13:18:06.799Z,22.11
2019-04-30T13:20:39.207Z,22.16
2019-04-30T13:23:11.740Z,22.25
2019-04-30T13:25:51.211Z,22.28
2019-04-30T13:28:19.842Z,22.28
2019-04-30T13:30:52.251Z,22.22
2019-04-30T13:33:30.160Z,22.16
2019-04-30T13:36:02.760Z,22.09
2019-04-30T13:38:47.603Z,22.09
2019-04-30T13:41:18.747Z,22.09
2019-04-30T13:43:53.910Z,22.15
2019-04-30T13:46:28.359Z,22.16
2019-04-30T13:49:00.735Z,22.18
2019-04-30T13:51:33.255Z,22.19
2019-04-30T13:54:06.695Z,22.15
2019-04-30T13:56:39.744Z,22.11
2019-04-30T13:59:12.095Z,22.07
2019-04-30T14:01:44.575Z,22.07
2019-04-30T14:04:21.667Z,22.04
2019-04-30T14:07:09.257Z,22.07
2019-04-30T14:09:41.655Z,21.99
2019-04-30T14:12:14.455Z,21.99
2019-04-30T14:14:46.929Z,21.97
2019-04-30T14:17:19.735Z,21.92
2019-04-30T14:19:52.235Z,21.94
2019-04-30T14:22:24.715Z,21.97
2019-04-30T14:24:57.205Z,21.99
2019-04-30T14:27:29.985Z,22.04
2019-04-30T14:30:02.545Z,22.01
2019-04-30T14:32:35.205Z,21.99
2019-04-30T14:35:09.139Z,21.95
2019-04-30T14:37:41.886Z,21.98
2019-04-30T14:40:19.262Z,21.97
2019-04-30T14:42:53.034Z,21.98
2019-04-30T14:45:30.817Z,21.90
2019-04-30T14:48:05.903Z,21.87
2019-04-30T14:50:39.365Z,21.81
2019-04-30T14:53:13.567Z,21.75
2019-04-30T14:56:11.275Z,21.70
2019-04-30T14:58:43.966Z,21.65
2019-04-30T15:01:19.390Z,21.60
2019-04-30T15:03:53.266Z,21.52
2019-04-30T15:06:25.745Z,21.50
2019-04-30T15:08:59.153Z,21.46
2019-04-30T15:11:31.625Z,21.42
2019-04-30T15:14:04.486Z,21.36
2019-04-30T15:16:38.026Z,21.37
2019-04-30T15:19:10.405Z,21.36
2019-04-30T15:21:42.885Z,21.36
2019-04-30T15:24:19.160Z,21.36
2019-04-30T15:26:57.911Z,21.34
2019-04-30T15:29:29.011Z,21.32
2019-04-30T15:32:01.427Z,21.30
2019-04-30T15:34:34.381Z,21.29
2019-04-30T15:37:18.760Z,21.26
2019-04-30T15:39:42.128Z,21.23
2019-04-30T15:42:15.750Z,21.20
2019-04-30T15:44:49.675Z,21.17
2019-04-30T15:47:23.680Z,21.13
2019-04-30T15:49:56.520Z,21.06
2019-04-30T15:52:29.389Z,21.08
2019-04-30T15:55:01.695Z,21.06
2019-04-30T15:57:34.310Z,21.03
2019-04-30T16:00:09.120Z,21.03
2019-04-30T16:02:56.244Z,20.99
2019-04-30T16:05:22.570Z,20.96
2019-04-30T16:07:58.317Z,20.91
2019-04-30T16:10:30.960Z,20.91
2019-04-30T16:13:14.020Z,20.87
2019-04-30T16:15:49.093Z,20.82
2019-04-30T16:18:21.546Z,20.81
2019-04-30T16:20:54.221Z,20.78
2019-04-30T16:23:26.920Z,20.74
2019-04-30T16:25:59.826Z,20.71
2019-04-30T16:28:32.830Z,20.61
2019-04-30T16:31:05.820Z,20.60
2019-04-30T16:33:39.373Z,20.54
2019-04-30T16:36:12.295Z,20.51
2019-04-30T16:38:45.060Z,20.48
2019-04-30T16:41:30.761Z,20.43
2019-04-30T16:43:52.260Z,20.37
2019-04-30T16:46:24.776Z,20.36
2019-04-30T16:48:58.652Z,20.27
2019-04-30T16:51:32.910Z,20.22
2019-04-30T16:54:05.631Z,20.17
2019-04-30T16:56:38.798Z,20.13
2019-04-30T16:59:13.217Z,20.06
2019-04-30T17:01:56.845Z,19.98
2019-04-30T17:04:20.721Z,19.92
2019-04-30T17:06:55.146Z,19.85
2019-04-30T17:09:27.690Z,19.81
2019-04-30T17:12:14.340Z,19.75
2019-04-30T17:14:49.249Z,19.66
2019-04-30T17:17:22.047Z,19.60
2019-04-30T17:19:54.816Z,19.51
2019-04-30T17:22:27.172Z,19.44
2019-04-30T17:24:59.701Z,19.37
2019-04-30T17:27:32.250Z,19.27
2019-04-30T17:30:09.073Z,19.20
2019-04-30T17:32:42.745Z,19.13
2019-04-30T17:35:16.140Z,19.07
2019-04-30T17:37:48.969Z,18.99
2019-04-30T17:40:22.365Z,18.85
2019-04-30T17:42:55.042Z,18.78
2019-04-30T17:45:29.279Z,18.67
2019-04-30T17:48:02.045Z,18.54
2019-04-30T17:50:34.800Z,18.44
2019-04-30T17:53:09.060Z,18.35
2019-04-30T17:55:41.892Z,18.24
2019-04-30T17:58:20.438Z,18.14
2019-04-30T18:00:53.830Z,18.03
2019-04-30T18:03:28.853Z,17.95
2019-04-30T18:06:01.340Z,17.84
2019-04-30T18:08:33.840Z,17.75
2019-04-30T18:11:06.430Z,17.62
2019-04-30T18:13:40.610Z,17.54
2019-04-30T18:16:13.200Z,17.44
2019-04-30T18:18:51.224Z,17.31
2019-04-30T18:21:31.530Z,17.24
2019-04-30T18:24:21.995Z,17.13
2019-04-30T18:26:59.385Z,17.05
2019-04-30T18:29:32.260Z,16.96
2019-04-30T18:32:04.965Z,16.86
2019-04-30T18:34:39.093Z,16.78
2019-04-30T18:37:12.290Z,16.68
2019-04-30T18:39:45.100Z,16.59
2019-04-30T18:42:19.366Z,16.50
2019-04-30T18:44:52.582Z,16.41
2019-04-30T18:47:26.045Z,16.30
2019-04-30T18:49:59.441Z,16.21
2019-04-30T18:52:32.502Z,16.12
2019-04-30T18:55:06.822Z,16.05
2019-04-30T18:57:39.850Z,15.93
2019-04-30T19:00:15.155Z,15.88
2019-04-30T19:02:48.574Z,15.80
2019-04-30T19:05:26.220Z,15.76
2019-04-30T19:08:00.655Z,15.69
2019-04-30T19:10:47.332Z,15.66
2019-04-30T19:13:33.185Z,15.57
2019-04-30T19:16:25.697Z,15.54
2019-04-30T19:19:03.075Z,15.47
2019-04-30T19:21:36.320Z,15.40
2019-04-30T19:24:08.990Z,15.37
2019-04-30T19:26:41.590Z,15.33
2019-04-30T19:29:14.490Z,15.25
2019-04-30T19:31:49.340Z,15.20
2019-04-30T19:34:21.665Z,15.15
2019-04-30T19:36:54.276Z,15.09
2019-04-30T19:39:27.020Z,15.02
2019-04-30T19:42:01.034Z,14.93
2019-04-30T19:44:33.541Z,14.89
2019-04-30T19:47:09.186Z,14.82
2019-04-30T19:49:41.660Z,14.76
2019-04-30T19:52:14.597Z,14.71
2019-04-30T19:54:48.783Z,14.65
2019-04-30T19:57:21.457Z,14.56
2019-04-30T19:59:54.175Z,14.49
2019-04-30T20:02:29.357Z,14.41
2019-04-30T20:05:01.760Z,14.35
2019-04-30T20:07:35.515Z,14.25
2019-04-30T20:10:09.860Z,14.18
2019-04-30T20:12:42.830Z,14.07
2019-04-30T20:15:19.474Z,13.99
2019-04-30T20:17:50.665Z,13.89
2019-04-30T20:20:23.405Z,13.83
2019-04-30T20:22:56.171Z,13.73
2019-04-30T20:25:28.722Z,13.65
2019-04-30T20:28:01.266Z,13.58
2019-04-30T20:30:33.955Z,13.52
2019-04-30T20:33:06.699Z,13.46
2019-04-30T20:35:41.157Z,13.39
2019-04-30T20:38:28.525Z,13.34
2019-04-30T20:41:03.237Z,13.27
2019-04-30T20:43:35.941Z,13.23
2019-04-30T20:46:08.886Z,13.18
2019-04-30T20:48:41.590Z,13.14
2019-04-30T20:51:14.605Z,13.10
2019-04-30T20:53:49.155Z,13.06
2019-04-30T20:56:22.470Z,13.03
2019-04-30T20:58:58.618Z,12.94
2019-04-30T21:01:30.165Z,12.93
2019-04-30T21:04:03.104Z,12.90
2019-04-30T21:06:35.895Z,12.86
2019-04-30T21:09:08.665Z,12.82
2019-04-30T21:11:44.965Z,12.79
2019-04-30T21:14:16.685Z,12.72
2019-04-30T21:16:49.379Z,12.65
2019-04-30T21:19:22.084Z,12.60
2019-04-30T21:21:55.059Z,12.55
2019-04-30T21:24:27.494Z,12.49
2019-04-30T21:27:00.344Z,12.45
2019-04-30T21:29:32.839Z,12.39
2019-04-30T21:32:07.217Z,12.35
2019-04-30T21:34:44.321Z,12.29
2019-04-30T21:37:16.996Z,12.21
2019-04-30T21:39:50.210Z,12.17
2019-04-30T21:42:22.919Z,12.11
2019-04-30T21:44:56.740Z,12.05
2019-04-30T21:47:31.020Z,12.00
2019-04-30T21:50:04.729Z,11.91
2019-04-30T21:52:38.339Z,11.86
2019-04-30T21:55:12.509Z,11.82
2019-04-30T21:57:45.125Z,11.73
2019-04-30T22:00:39.620Z,11.69
2019-04-30T22:03:13.754Z,11.59
2019-04-30T22:05:46.575Z,11.56
2019-04-30T22:08:19.209Z,11.49
2019-04-30T22:10:51.954Z,11.41
2019-04-30T22:13:24.764Z,11.35
2019-04-30T22:15:57.334Z,11.29
2019-04-30T22:18:30.331Z,11.26
2019-04-30T22:21:02.981Z,11.19
2019-04-30T22:23:35.639Z,11.14
2019-04-30T22:26:08.474Z,11.06
2019-04-30T22:28:41.263Z,11.03
2019-04-30T22:31:14.329Z,10.97
2019-04-30T22:33:48.966Z,10.91
2019-04-30T22:36:31.860Z,10.87
2019-04-30T22:39:12.041Z,10.86
2019-04-30T22:41:44.327Z,10.80
2019-04-30T22:44:17.994Z,10.79
2019-04-30T22:46:50.569Z,10.75
2019-04-30T22:49:23.299Z,10.70
2019-04-30T22:51:55.825Z,10.69
2019-04-30T22:54:28.720Z,10.65
2019-04-30T22:57:01.074Z,10.63
2019-04-30T22:59:33.585Z,10.60
2019-04-30T23:02:26.320Z,10.60
2019-04-30T23:05:00.921Z,10.58
2019-04-30T23:07:33.870Z,10.56
2019-04-30T23:10:08.133Z,10.55
2019-04-30T23:12:42.020Z,10.53
2019-04-30T23:15:16.422Z,10.52
2019-04-30T23:17:49.261Z,10.52
2019-04-30T23:20:21.828Z,10.52
2019-04-30T23:22:55.522Z,10.48
2019-04-30T23:25:28.010Z,10.50
2019-04-30T23:28:00.999Z,10.48
2019-04-30T23:30:33.715Z,10.46
2019-04-30T23:33:06.544Z,10.46
2019-04-30T23:35:40.676Z,10.43
2019-04-30T23:38:13.570Z,10.45
2019-04-30T23:40:53.326Z,10.43
2019-04-30T23:43:25.974Z,10.41
2019-04-30T23:45:58.655Z,10.38
2019-04-30T23:48:32.260Z,10.36
2019-04-30T23:51:05.485Z,10.35
2019-04-30T23:53:38.435Z,10.32
2019-04-30T23:56:11.059Z,10.35
2019-04-30T23:58:43.985Z,10.31
